createdAt,value
2023-01-17T00:01:18.549Z,4.85
2023-01-17T00:03:20.603Z,4.32
2023-01-17T00:05:42.030Z,4.68
2023-01-17T00:08:02.775Z,6.28
2023-01-17T00:10:19.403Z,5.10
2023-01-17T00:12:30.950Z,3.85
2023-01-17T00:14:35.023Z,4.00
2023-01-17T00:16:40.068Z,3.30
2023-01-17T00:19:03.856Z,3.90
2023-01-17T00:21:26.393Z,3.00
2023-01-17T00:23:47.243Z,4.35
2023-01-17T00:26:07.225Z,3.72
2023-01-17T00:28:10.656Z,3.78
2023-01-17T00:30:12.831Z,4.22
2023-01-17T00:32:14.697Z,4.55
2023-01-17T00:34:23.584Z,3.95
2023-01-17T00:36:25.571Z,4.30
2023-01-17T00:38:38.236Z,3.78
2023-01-17T00:40:49.252Z,3.90
2023-01-17T00:43:22.832Z,4.40
2023-01-17T00:45:44.279Z,5.88
2023-01-17T00:48:05.071Z,4.55
2023-01-17T00:50:25.774Z,4.63
2023-01-17T00:52:52.250Z,4.00
2023-01-17T00:55:15.103Z,4.30
2023-01-17T00:57:35.657Z,4.03
2023-01-17T00:59:57.572Z,4.20
2023-01-17T01:04:45.920Z,5.90
2023-01-17T01:07:09.160Z,5.53
2023-01-17T01:09:35.469Z,4.80
2023-01-17T01:12:08.737Z,4.25
2023-01-17T01:14:30.327Z,4.65
2023-01-17T01:17:01.852Z,4.53
2023-01-17T01:19:26.213Z,4.88
2023-01-17T01:21:49.123Z,4.75
2023-01-17T01:24:09.691Z,6.07
2023-01-17T01:26:31.481Z,5.45
2023-01-17T01:28:53.194Z,5.95
2023-01-17T01:31:18.290Z,5.68
2023-01-17T01:33:27.967Z,5.22
2023-01-17T01:35:31.080Z,5.22
2023-01-17T01:37:37.465Z,4.32
2023-01-17T01:39:41.476Z,5.10
2023-01-17T01:41:44.505Z,5.70
2023-01-17T01:43:58.597Z,5.72
2023-01-17T01:46:07.918Z,5.57
2023-01-17T01:48:32.451Z,6.18
2023-01-17T01:50:37.806Z,6.25
2023-01-17T01:52:49.170Z,5.95
2023-01-17T01:55:00.403Z,6.63
2023-01-17T01:57:07.393Z,9.55
2023-01-17T01:59:14.029Z,6.20
2023-01-17T02:01:24.811Z,6.72
2023-01-17T02:03:32.895Z,5.57
2023-01-17T02:05:35.801Z,5.78
2023-01-17T02:08:11.420Z,5.50
2023-01-17T02:10:20.699Z,6.43
2023-01-17T02:12:23.744Z,6.47
2023-01-17T02:14:25.685Z,5.60
2023-01-17T02:16:45.304Z,6.45
2023-01-17T02:19:09.125Z,5.55
2023-01-17T02:21:37.688Z,6.82
2023-01-17T02:24:10.261Z,7.40
2023-01-17T02:27:02.625Z,6.80
2023-01-17T02:31:37.205Z,7.72
2023-01-17T02:33:39.661Z,6.35
2023-01-17T02:36:04.771Z,5.88
2023-01-17T02:38:32.235Z,6.80
2023-01-17T02:40:47.876Z,6.32
2023-01-17T02:43:02.946Z,7.03
2023-01-17T02:45:10.451Z,7.00
2023-01-17T02:47:42.688Z,6.70
2023-01-17T02:49:45.668Z,5.93
2023-01-17T02:52:21.226Z,6.78
2023-01-17T02:54:47.513Z,6.63
2023-01-17T02:57:21.074Z,6.30
2023-01-17T02:59:40.274Z,5.68
2023-01-17T03:02:37.119Z,7.30
2023-01-17T03:04:51.768Z,7.35
2023-01-17T03:07:03.391Z,7.18
2023-01-17T03:09:09.163Z,7.15
2023-01-17T03:11:14.217Z,7.07
2023-01-17T03:13:16.231Z,8.77
2023-01-17T03:15:24.878Z,7.90
2023-01-17T03:17:32.999Z,9.63
2023-01-17T03:19:36.143Z,6.75
2023-01-17T03:21:38.145Z,7.60
2023-01-17T03:23:40.109Z,8.48
2023-01-17T03:25:42.337Z,9.27
2023-01-17T03:27:48.544Z,9.07
2023-01-17T03:29:50.533Z,9.18
2023-01-17T03:31:54.104Z,9.02
2023-01-17T03:33:58.440Z,10.48
2023-01-17T03:36:01.550Z,8.65
2023-01-17T03:38:05.627Z,8.70
2023-01-17T03:40:08.771Z,7.88
2023-01-17T03:42:10.954Z,7.07
2023-01-17T03:44:14.944Z,8.40
2023-01-17T03:46:23.848Z,7.85
2023-01-17T03:48:32.853Z,7.38
2023-01-17T03:50:36.813Z,8.38
2023-01-17T03:52:42.195Z,8.30
2023-01-17T03:54:46.503Z,7.63
2023-01-17T03:56:48.850Z,8.20
2023-01-17T03:58:51.814Z,7.28
2023-01-17T04:00:55.239Z,7.88
2023-01-17T04:02:57.354Z,8.50
2023-01-17T04:04:59.571Z,7.32
2023-01-17T04:07:02.627Z,7.32
2023-01-17T04:09:14.635Z,8.27
2023-01-17T04:11:17.204Z,7.93
2023-01-17T04:13:22.463Z,7.75
2023-01-17T04:15:33.648Z,7.65
2023-01-17T04:17:39.877Z,7.35
2023-01-17T04:19:42.227Z,7.80
2023-01-17T04:21:44.352Z,9.65
2023-01-17T04:23:48.228Z,8.55
2023-01-17T04:25:50.324Z,10.20
2023-01-17T04:27:55.560Z,7.88
2023-01-17T04:29:57.572Z,8.35
2023-01-17T04:32:02.020Z,10.80
2023-01-17T04:34:08.229Z,9.68
2023-01-17T04:36:12.653Z,8.43
2023-01-17T04:38:15.570Z,10.52
2023-01-17T04:40:18.440Z,8.90
2023-01-17T04:42:20.618Z,8.43
2023-01-17T04:44:22.578Z,8.88
2023-01-17T04:46:24.775Z,7.95
2023-01-17T04:48:27.480Z,8.18
2023-01-17T04:50:29.560Z,7.38
2023-01-17T04:52:31.760Z,8.05
2023-01-17T04:54:37.992Z,8.75
2023-01-17T04:56:39.990Z,7.05
2023-01-17T04:58:42.984Z,8.38
2023-01-17T05:00:51.008Z,9.07
2023-01-17T05:02:55.125Z,9.02
2023-01-17T05:04:58.279Z,8.48
2023-01-17T05:07:01.316Z,8.82
2023-01-17T05:09:03.343Z,9.30
2023-01-17T05:11:05.608Z,8.55
2023-01-17T05:13:11.095Z,9.23
2023-01-17T05:15:18.846Z,8.82
2023-01-17T05:17:24.077Z,7.90
2023-01-17T05:19:27.384Z,8.93
2023-01-17T05:21:31.779Z,8.45
2023-01-17T05:23:33.753Z,10.45
2023-01-17T05:25:36.684Z,8.57
2023-01-17T05:27:44.270Z,8.27
2023-01-17T05:29:47.533Z,8.95
2023-01-17T05:31:49.571Z,8.38
2023-01-17T05:33:51.770Z,8.70
2023-01-17T05:35:55.824Z,9.85
2023-01-17T05:37:57.797Z,8.57
2023-01-17T05:40:04.028Z,8.07
2023-01-17T05:42:06.146Z,10.45
2023-01-17T05:44:09.449Z,11.43
2023-01-17T05:46:11.912Z,9.23
2023-01-17T05:48:15.093Z,9.55
2023-01-17T05:50:21.297Z,10.65
2023-01-17T05:52:24.898Z,17.15
2023-01-17T05:54:26.973Z,15.05
2023-01-17T05:56:28.883Z,10.05
2023-01-17T05:58:31.911Z,9.00
2023-01-17T06:00:35.543Z,9.23
2023-01-17T06:02:45.574Z,9.82
2023-01-17T06:04:48.690Z,8.75
2023-01-17T06:06:50.786Z,11.77
2023-01-17T06:08:52.724Z,10.05
2023-01-17T06:11:00.391Z,10.02
2023-01-17T06:13:10.911Z,9.82
2023-01-17T06:15:14.536Z,8.00
2023-01-17T06:17:16.721Z,9.85
2023-01-17T06:19:19.795Z,9.90
2023-01-17T06:21:29.860Z,10.27
2023-01-17T06:23:32.206Z,9.88
2023-01-17T06:25:45.850Z,10.68
2023-01-17T06:27:48.988Z,10.30
2023-01-17T06:29:52.282Z,10.25
2023-01-17T06:31:55.325Z,9.75
2023-01-17T06:34:02.639Z,11.65
2023-01-17T06:36:05.211Z,8.70
2023-01-17T06:38:08.006Z,7.85
2023-01-17T06:40:10.895Z,10.40
2023-01-17T06:42:12.936Z,9.75
2023-01-17T06:44:14.875Z,8.63
2023-01-17T06:46:17.846Z,8.15
2023-01-17T06:48:19.854Z,8.63
2023-01-17T06:50:22.204Z,11.38
2023-01-17T06:52:24.165Z,9.77
2023-01-17T06:54:27.273Z,10.02
2023-01-17T06:56:32.285Z,8.25
2023-01-17T06:58:34.653Z,8.43
2023-01-17T07:00:39.444Z,9.40
2023-01-17T07:02:42.534Z,8.02
2023-01-17T07:04:44.801Z,11.40
2023-01-17T07:06:51.685Z,7.72
2023-01-17T07:08:53.812Z,9.15
2023-01-17T07:11:03.484Z,7.88
2023-01-17T07:13:12.776Z,8.45
2023-01-17T07:15:16.976Z,11.77
2023-01-17T07:17:19.354Z,10.00
2023-01-17T07:19:21.579Z,9.05
2023-01-17T07:21:24.542Z,10.45
2023-01-17T07:23:31.773Z,12.65
2023-01-17T07:25:33.931Z,9.48
2023-01-17T07:27:35.834Z,9.07
2023-01-17T07:29:38.992Z,9.43
2023-01-17T07:31:42.366Z,8.65
2023-01-17T07:33:44.298Z,8.13
2023-01-17T07:35:46.829Z,10.65
2023-01-17T07:37:51.906Z,10.38
2023-01-17T07:39:54.765Z,8.55
2023-01-17T07:42:01.835Z,9.25
2023-01-17T07:44:03.796Z,11.38
2023-01-17T07:46:08.277Z,11.65
2023-01-17T07:48:11.868Z,12.18
2023-01-17T07:50:20.785Z,7.68
2023-01-17T07:52:24.934Z,8.63
2023-01-17T07:54:28.952Z,8.13
2023-01-17T07:56:30.859Z,9.85
2023-01-17T07:58:36.929Z,8.18
2023-01-17T08:00:38.930Z,8.25
2023-01-17T08:02:41.896Z,8.68
2023-01-17T08:04:46.359Z,8.32
2023-01-17T08:06:51.900Z,8.15
2023-01-17T08:08:56.705Z,8.52
2023-01-17T08:10:58.848Z,7.88
2023-01-17T08:13:00.774Z,8.63
2023-01-17T08:15:05.690Z,6.75
2023-01-17T08:17:14.791Z,7.55
2023-01-17T08:19:17.612Z,7.60
2023-01-17T08:21:19.738Z,10.73
2023-01-17T08:23:23.912Z,8.93
2023-01-17T08:25:26.844Z,6.80
2023-01-17T08:27:29.860Z,5.97
2023-01-17T08:29:31.758Z,9.52
2023-01-17T08:31:36.071Z,7.03
2023-01-17T08:33:45.877Z,6.88
2023-01-17T08:35:55.193Z,7.25
2023-01-17T08:37:58.297Z,6.75
2023-01-17T08:40:07.997Z,6.55
2023-01-17T08:42:09.923Z,6.28
2023-01-17T08:44:12.383Z,6.97
2023-01-17T08:46:14.569Z,5.85
2023-01-17T08:48:17.327Z,8.23
2023-01-17T08:50:22.408Z,7.88
2023-01-17T08:52:27.676Z,6.22
2023-01-17T08:54:30.006Z,5.50
2023-01-17T08:56:32.967Z,5.72
2023-01-17T08:58:36.026Z,5.55
2023-01-17T09:00:38.149Z,5.32
2023-01-17T09:02:40.162Z,5.63
2023-01-17T09:04:48.970Z,6.40
2023-01-17T09:06:50.928Z,7.82
2023-01-17T09:08:55.045Z,6.20
2023-01-17T09:10:58.284Z,8.90
2023-01-17T09:13:01.328Z,5.97
2023-01-17T09:15:05.302Z,5.75
2023-01-17T09:17:08.458Z,8.75
2023-01-17T09:19:10.612Z,7.78
2023-01-17T09:21:15.438Z,6.03
2023-01-17T09:23:19.572Z,7.05
2023-01-17T09:25:21.566Z,7.25
2023-01-17T09:27:29.591Z,7.28
2023-01-17T09:29:31.591Z,6.53
2023-01-17T09:31:35.950Z,6.78
2023-01-17T09:33:43.819Z,6.00
2023-01-17T09:35:47.322Z,7.68
2023-01-17T09:37:57.307Z,6.15
2023-01-17T09:39:59.367Z,10.43
2023-01-17T09:42:28.179Z,6.53
2023-01-17T09:44:44.189Z,8.30
2023-01-17T09:46:49.198Z,7.68
2023-01-17T09:49:18.863Z,7.13
2023-01-17T09:51:24.666Z,9.90
2023-01-17T09:53:29.209Z,6.70
2023-01-17T09:55:44.187Z,9.02
2023-01-17T09:58:09.024Z,6.55
2023-01-17T10:00:15.603Z,8.00
2023-01-17T10:02:37.757Z,6.80
2023-01-17T10:04:55.779Z,9.45
2023-01-17T10:07:13.569Z,9.02
2023-01-17T10:09:29.631Z,7.78
2023-01-17T10:11:44.628Z,9.02
2023-01-17T10:13:52.571Z,8.30
2023-01-17T10:16:23.073Z,7.32
2023-01-17T10:19:04.086Z,9.55
2023-01-17T10:21:28.917Z,7.40
2023-01-17T10:23:56.970Z,6.35
2023-01-17T10:26:03.467Z,7.70
2023-01-17T10:28:12.637Z,6.45
2023-01-17T10:30:45.291Z,7.93
2023-01-17T10:32:49.411Z,8.40
2023-01-17T10:34:53.597Z,7.88
2023-01-17T10:37:23.060Z,7.15
2023-01-17T10:39:29.177Z,8.13
2023-01-17T10:41:45.121Z,7.15
2023-01-17T10:44:06.628Z,6.30
2023-01-17T10:46:16.170Z,6.93
2023-01-17T10:48:35.609Z,7.60
2023-01-17T10:50:59.459Z,9.10
2023-01-17T10:53:17.585Z,9.02
2023-01-17T10:55:33.087Z,9.65
2023-01-17T10:57:43.998Z,12.50
2023-01-17T10:59:49.068Z,8.53
2023-01-17T11:01:51.485Z,10.50
2023-01-17T11:03:59.648Z,12.00
2023-01-17T11:06:27.296Z,8.23
2023-01-17T11:08:57.565Z,10.75
2023-01-17T11:11:04.362Z,10.18
2023-01-17T11:13:31.296Z,10.02
2023-01-17T11:15:40.011Z,9.70
2023-01-17T11:18:00.447Z,9.40
2023-01-17T11:20:39.684Z,7.78
2023-01-17T11:22:49.663Z,9.30
2023-01-17T11:24:55.235Z,11.95
2023-01-17T11:26:58.803Z,9.40
2023-01-17T11:29:32.797Z,8.43
2023-01-17T11:31:35.762Z,9.20
2023-01-17T11:34:05.491Z,10.38
2023-01-17T11:36:27.726Z,14.40
2023-01-17T11:38:30.864Z,14.45
2023-01-17T11:40:36.897Z,11.30
2023-01-17T11:42:39.213Z,14.45
2023-01-17T11:44:43.187Z,12.00
2023-01-17T11:46:45.195Z,13.30
2023-01-17T11:48:51.536Z,11.32
2023-01-17T11:51:00.416Z,13.68
2023-01-17T11:53:16.840Z,12.23
2023-01-17T11:55:23.215Z,14.18
2023-01-17T11:57:31.679Z,12.95
2023-01-17T11:59:43.976Z,16.13
2023-01-17T12:02:21.499Z,8.48
2023-01-17T12:05:15.563Z,8.82
2023-01-17T12:07:38.641Z,8.27
2023-01-17T12:09:54.805Z,8.07
2023-01-17T12:12:31.318Z,7.90
2023-01-17T12:14:46.751Z,8.85
2023-01-17T12:17:23.276Z,9.10
2023-01-17T12:19:46.906Z,8.73
2023-01-17T12:22:04.083Z,10.18
2023-01-17T12:24:14.693Z,8.68
2023-01-17T12:26:59.056Z,7.85
2023-01-17T12:29:28.838Z,9.20
2023-01-17T12:31:39.708Z,9.73
2023-01-17T12:34:02.149Z,15.77
2023-01-17T12:36:17.770Z,10.60
2023-01-17T12:38:33.670Z,10.50
2023-01-17T12:40:46.905Z,10.32
2023-01-17T12:42:59.368Z,9.95
2023-01-17T12:45:12.046Z,9.07
2023-01-17T12:47:15.592Z,11.80
2023-01-17T12:49:26.629Z,9.93
2023-01-17T12:51:34.436Z,12.35
2023-01-17T12:53:52.400Z,11.80
2023-01-17T12:56:09.286Z,11.05
2023-01-17T12:58:37.065Z,10.75
2023-01-17T13:00:40.023Z,10.45
2023-01-17T13:02:57.851Z,10.82
2023-01-17T13:05:07.140Z,8.80
2023-01-17T13:07:48.207Z,8.77
2023-01-17T13:10:00.317Z,10.75
2023-01-17T13:12:10.590Z,8.30
2023-01-17T13:14:13.585Z,10.68
2023-01-17T13:16:31.981Z,9.30
2023-01-17T13:18:37.231Z,8.45
2023-01-17T13:20:54.157Z,8.55
2023-01-17T13:23:01.794Z,10.35
2023-01-17T13:25:32.277Z,13.18
2023-01-17T13:27:37.830Z,7.90
2023-01-17T13:29:49.721Z,12.20
2023-01-17T13:32:25.951Z,13.35
2023-01-17T13:34:55.429Z,9.15
2023-01-17T13:37:24.783Z,9.55
2023-01-17T13:39:52.187Z,8.75
2023-01-17T13:42:11.209Z,8.13
2023-01-17T13:44:24.905Z,8.63
2023-01-17T13:46:31.190Z,7.40
2023-01-17T13:48:41.397Z,10.73
2023-01-17T13:50:47.520Z,11.68
2023-01-17T13:52:49.614Z,11.23
2023-01-17T13:54:53.692Z,7.82
2023-01-17T13:57:53.488Z,8.85
2023-01-17T14:00:24.667Z,9.45
2023-01-17T14:02:33.537Z,8.70
2023-01-17T14:05:16.432Z,11.35
2023-01-17T14:07:25.638Z,7.75
2023-01-17T14:09:43.080Z,9.77
2023-01-17T14:12:11.094Z,8.05
2023-01-17T14:14:59.059Z,9.43
2023-01-17T14:17:29.470Z,9.82
2023-01-17T14:19:36.669Z,14.65
2023-01-17T14:21:38.764Z,12.30
2023-01-17T14:24:00.919Z,9.35
2023-01-17T14:26:23.672Z,9.93
2023-01-17T14:28:29.961Z,10.82
2023-01-17T14:30:38.368Z,8.77
2023-01-17T14:32:43.499Z,11.93
2023-01-17T14:34:47.939Z,8.82
2023-01-17T14:36:49.946Z,17.13
2023-01-17T14:38:51.972Z,8.07
2023-01-17T14:40:59.249Z,9.23
2023-01-17T14:43:18.913Z,8.93
2023-01-17T14:45:28.875Z,12.45
2023-01-17T14:47:34.787Z,12.65
2023-01-17T14:49:36.813Z,18.08
2023-01-17T14:51:39.243Z,18.20
2023-01-17T14:53:53.876Z,24.23
2023-01-17T14:56:03.456Z,25.90
2023-01-17T14:58:05.650Z,23.70
2023-01-17T15:00:21.375Z,28.48
2023-01-17T15:02:23.618Z,24.42
2023-01-17T15:04:30.647Z,24.73
2023-01-17T15:06:41.121Z,21.60
2023-01-17T15:08:43.371Z,18.23
2023-01-17T15:11:00.362Z,13.68
2023-01-17T15:13:10.665Z,16.58
2023-01-17T15:15:35.472Z,18.38
2023-01-17T15:17:39.537Z,21.02
2023-01-17T15:20:01.930Z,16.13
2023-01-17T15:22:05.311Z,16.48
2023-01-17T15:24:09.174Z,14.57
2023-01-17T15:26:15.262Z,15.93
2023-01-17T15:28:25.079Z,13.73
2023-01-17T15:30:43.997Z,14.20
2023-01-17T15:32:51.473Z,13.23
2023-01-17T15:34:54.522Z,15.27
2023-01-17T15:36:59.385Z,16.67
2023-01-17T15:39:05.159Z,16.13
2023-01-17T15:41:18.238Z,15.90
2023-01-17T15:43:24.425Z,15.23
2023-01-17T15:45:32.011Z,18.80
2023-01-17T15:47:40.243Z,17.95
2023-01-17T15:49:51.775Z,19.27
2023-01-17T15:53:57.905Z,21.73
2023-01-17T15:56:01.085Z,17.50
2023-01-17T15:58:05.103Z,17.27
2023-01-17T16:00:12.644Z,19.75
2023-01-17T16:02:37.950Z,18.08
2023-01-17T16:04:42.477Z,19.35
2023-01-17T16:06:47.598Z,20.08
2023-01-17T16:08:53.149Z,15.95
2023-01-17T16:11:02.568Z,11.38
2023-01-17T16:13:07.084Z,12.57
2023-01-17T16:15:13.056Z,12.70
2023-01-17T16:17:18.194Z,12.02
2023-01-17T16:19:21.683Z,15.93
2023-01-17T16:21:26.390Z,16.08
2023-01-17T16:23:28.894Z,13.27
2023-01-17T16:25:33.043Z,14.93
2023-01-17T16:27:35.094Z,12.55
2023-01-17T16:29:37.539Z,13.48
2023-01-17T16:31:39.707Z,11.38
2023-01-17T16:33:46.203Z,13.07
2023-01-17T16:35:48.269Z,12.05
2023-01-17T16:37:54.064Z,11.55
2023-01-17T16:39:56.474Z,14.07
2023-01-17T16:42:05.012Z,12.55
2023-01-17T16:44:07.131Z,16.13
2023-01-17T16:46:11.983Z,14.43
2023-01-17T16:48:14.421Z,14.15
2023-01-17T16:50:22.459Z,12.82
2023-01-17T16:52:24.505Z,14.05
2023-01-17T16:54:33.275Z,14.05
2023-01-17T16:56:36.348Z,12.40
2023-01-17T16:58:40.444Z,22.83
2023-01-17T17:00:43.233Z,22.52
2023-01-17T17:02:45.412Z,28.08
2023-01-17T17:04:47.466Z,34.72
2023-01-17T17:06:49.381Z,34.58
2023-01-17T17:08:51.592Z,34.30
2023-01-17T17:10:53.817Z,28.92
2023-01-17T17:12:56.714Z,30.52
2023-01-17T17:14:59.069Z,27.27
2023-01-17T17:17:02.216Z,29.50
2023-01-17T17:19:07.154Z,26.88
2023-01-17T17:21:09.329Z,26.13
2023-01-17T17:23:13.308Z,31.67
2023-01-17T17:25:16.496Z,34.00
2023-01-17T17:27:18.877Z,26.45
2023-01-17T17:29:22.364Z,27.77
2023-01-17T17:31:24.746Z,24.10
2023-01-17T17:33:28.885Z,24.73
2023-01-17T17:35:35.363Z,21.35
2023-01-17T17:37:38.047Z,28.15
2023-01-17T17:39:42.421Z,39.65
2023-01-17T17:41:48.714Z,41.17
2023-01-17T17:43:52.470Z,39.90
2023-01-17T17:45:56.005Z,39.78
2023-01-17T17:47:58.076Z,38.00
2023-01-17T17:50:00.193Z,39.88
2023-01-17T17:52:06.907Z,48.17
2023-01-17T17:54:13.755Z,58.03
2023-01-17T17:56:17.966Z,37.08
2023-01-17T17:58:22.044Z,51.50
2023-01-17T18:00:25.597Z,48.78
2023-01-17T18:02:28.054Z,37.03
2023-01-17T18:04:30.272Z,38.05
2023-01-17T18:06:32.890Z,36.40
2023-01-17T18:08:37.624Z,36.08
2023-01-17T18:10:40.441Z,34.40
2023-01-17T18:12:42.867Z,39.55
2023-01-17T18:14:44.921Z,52.15
2023-01-17T18:16:51.451Z,66.28
2023-01-17T18:18:56.113Z,61.85
2023-01-17T18:21:07.229Z,71.88
2023-01-17T18:23:10.040Z,76.13
2023-01-17T18:25:13.305Z,59.33
2023-01-17T18:27:15.837Z,56.25
2023-01-17T18:29:19.829Z,53.17
2023-01-17T18:31:28.131Z,52.33
2023-01-17T18:33:30.585Z,51.58
2023-01-17T18:35:36.092Z,46.90
2023-01-17T18:37:39.087Z,46.45
2023-01-17T18:39:45.169Z,43.80
2023-01-17T18:41:49.902Z,44.92
2023-01-17T18:43:53.789Z,56.40
2023-01-17T18:45:56.423Z,53.83
2023-01-17T18:47:59.540Z,56.80
2023-01-17T18:50:03.554Z,63.80
2023-01-17T18:52:08.320Z,55.58
2023-01-17T18:54:13.141Z,53.58
2023-01-17T18:56:21.319Z,50.15
2023-01-17T18:58:25.645Z,51.80
2023-01-17T19:00:28.770Z,45.55
2023-01-17T19:02:32.702Z,40.05
2023-01-17T19:04:36.614Z,42.15
2023-01-17T19:06:43.839Z,43.45
2023-01-17T19:08:49.776Z,40.28
2023-01-17T19:10:52.290Z,43.65
2023-01-17T19:12:56.064Z,39.35
2023-01-17T19:15:04.065Z,39.20
2023-01-17T19:17:10.936Z,40.78
2023-01-17T19:19:16.415Z,29.98
2023-01-17T19:21:21.621Z,29.85
2023-01-17T19:23:24.107Z,30.95
2023-01-17T19:25:26.478Z,32.47
2023-01-17T19:27:29.025Z,32.55
2023-01-17T19:29:31.501Z,27.15
2023-01-17T19:31:40.102Z,31.63
2023-01-17T19:33:44.456Z,27.98
2023-01-17T19:35:47.670Z,32.33
2023-01-17T19:37:53.954Z,29.33
2023-01-17T19:39:57.333Z,31.55
2023-01-17T19:42:02.700Z,31.15
2023-01-17T19:44:09.000Z,32.50
2023-01-17T19:46:13.683Z,33.03
2023-01-17T19:48:17.541Z,31.40
2023-01-17T19:50:20.443Z,34.90
2023-01-17T19:52:24.772Z,34.60
2023-01-17T19:54:28.141Z,31.38
2023-01-17T19:56:31.084Z,30.27
2023-01-17T19:58:39.846Z,33.75
2023-01-17T20:00:50.943Z,32.42
2023-01-17T20:02:53.922Z,35.65
2023-01-17T20:04:57.712Z,32.83
2023-01-17T20:07:00.567Z,32.88
2023-01-17T20:09:04.483Z,34.28
2023-01-17T20:11:19.196Z,30.95
2023-01-17T20:13:23.547Z,31.70
2023-01-17T20:15:27.036Z,29.55
2023-01-17T20:17:30.249Z,31.45
2023-01-17T20:19:35.378Z,30.10
2023-01-17T20:21:38.259Z,31.13
2023-01-17T20:23:44.533Z,33.10
2023-01-17T20:26:05.283Z,35.03
2023-01-17T20:28:09.205Z,36.58
2023-01-17T20:30:20.049Z,38.72
2023-01-17T20:32:22.923Z,38.45
2023-01-17T20:34:26.070Z,43.85
2023-01-17T20:36:30.262Z,42.60
2023-01-17T20:38:54.793Z,45.75
2023-01-17T20:40:57.734Z,61.42
2023-01-17T20:43:00.337Z,72.93
2023-01-17T20:45:04.971Z,50.45
2023-01-17T20:47:07.522Z,39.92
2023-01-17T20:49:19.163Z,34.83
2023-01-17T20:53:25.337Z,41.50
2023-01-17T20:55:30.387Z,34.72
2023-01-17T20:57:33.772Z,33.50
2023-01-17T20:59:36.156Z,37.17
2023-01-17T21:01:39.420Z,41.47
2023-01-17T21:03:41.802Z,39.42
2023-01-17T21:05:43.900Z,39.30
2023-01-17T21:07:46.442Z,46.97
2023-01-17T21:09:48.864Z,51.78
2023-01-17T21:11:52.056Z,53.13
2023-01-17T21:13:54.788Z,51.97
2023-01-17T21:15:58.468Z,50.13
2023-01-17T21:18:00.548Z,51.80
2023-01-17T21:20:06.964Z,48.95
2023-01-17T21:25:31.809Z,39.67
2023-01-17T21:30:58.075Z,34.63
2023-01-17T21:36:24.114Z,34.17
2023-01-17T21:39:56.023Z,37.33
2023-01-17T21:45:20.593Z,38.77
2023-01-17T21:47:34.717Z,40.25
2023-01-17T21:50:05.192Z,47.67
2023-01-17T21:52:31.839Z,42.80
2023-01-17T22:06:07.625Z,35.45
2023-01-17T22:08:19.484Z,37.45
2023-01-17T22:14:06.308Z,34.80
2023-01-17T22:22:52.451Z,39.08
2023-01-17T22:28:18.742Z,40.75
2023-01-17T22:30:42.696Z,36.42
2023-01-17T22:39:36.142Z,41.07
2023-01-17T22:45:02.020Z,41.55
2023-01-17T22:47:38.074Z,43.03
2023-01-17T22:50:35.311Z,41.28
2023-01-17T22:56:18.392Z,39.13
2023-01-17T22:58:29.667Z,39.63
2023-01-17T23:03:54.630Z,41.42
2023-01-17T23:09:14.984Z,43.63
2023-01-17T23:14:58.697Z,43.63
2023-01-17T23:20:16.744Z,47.08
2023-01-17T23:26:10.019Z,52.00
2023-01-17T23:31:34.041Z,53.97
2023-01-17T23:37:17.501Z,53.07
2023-01-17T23:39:35.493Z,48.95
2023-01-17T23:48:25.875Z,41.15
2023-01-17T23:50:56.921Z,47.40
2023-01-17T23:56:24.827Z,43.22
